Time;durP1;ratioP1;P1;durP2;ratioP2;P2;SDS_P1;SDS_P2;PMS_P1;PMS_P2;Temp;Humidity;BMP_temperature;BMP_pressure;BME280_temperature;BME280_humidity;BME280_pressure;Samples;Min_cycle;Max_cycle;Signal;HPM_P1;HPM_P2
2021/03/13 00:01:57;;;;;;;6.70;4.97;;;;;;;7.59;67.03;98826.00;5057884;28;20480;-75
2021/03/13 00:04:23;;;;;;;8.00;5.63;;;;;;;7.73;66.47;98822.75;5053752;28;20887;-75
2021/03/13 00:06:49;;;;;;;6.97;4.60;;;;;;;7.68;67.02;98823.22;5057590;28;20464;-75
2021/03/13 00:09:15;;;;;;;7.40;5.00;;;;;;;7.68;66.55;98820.56;5063179;28;20459;-75
2021/03/13 00:11:42;;;;;;;13.87;5.20;;;;;;;7.99;65.76;98825.38;5060573;28;20484;-74
2021/03/13 00:14:08;;;;;;;8.67;4.90;;;;;;;7.80;66.03;98817.66;5053444;28;20496;-75
2021/03/13 00:16:35;;;;;;;9.47;5.00;;;;;;;7.81;65.90;98821.97;5062645;28;20472;-75
2021/03/13 00:19:01;;;;;;;9.30;4.70;;;;;;;7.69;66.24;98805.44;5062706;28;20448;-75
2021/03/13 00:21:27;;;;;;;13.57;5.53;;;;;;;7.80;66.34;98818.47;5061915;28;20545;-75
2021/03/13 00:23:55;;;;;;;6.50;4.70;;;;;;;7.83;65.85;98810.19;5064220;28;20463;-74
2021/03/13 00:26:21;;;;;;;10.63;3.73;;;;;;;7.77;66.21;98816.13;5062793;28;20485;-75
2021/03/13 00:28:47;;;;;;;10.83;4.97;;;;;;;7.79;65.85;98808.81;5063966;28;20460;-75
2021/03/13 00:31:13;;;;;;;6.43;4.47;;;;;;;7.72;65.98;98810.44;5063981;28;20476;-75
2021/03/13 00:33:42;;;;;;;8.70;4.33;;;;;;;7.80;66.04;98807.00;5064342;28;21061;-75
2021/03/13 00:36:09;;;;;;;9.33;4.20;;;;;;;8.07;65.52;98803.28;5063354;28;20480;-75
2021/03/13 00:38:35;;;;;;;10.33;5.33;;;;;;;8.00;65.50;98799.59;5064400;28;20994;-75
2021/03/13 00:41:02;;;;;;;5.73;3.97;;;;;;;8.01;65.33;98793.28;5063584;28;20519;-75
2021/03/13 00:43:28;;;;;;;8.23;4.47;;;;;;;7.80;65.51;98785.72;5064278;28;20469;-74
2021/03/13 00:45:54;;;;;;;7.07;4.90;;;;;;;7.82;65.49;98779.22;5063640;28;21050;-75
2021/03/13 00:48:21;;;;;;;7.10;4.83;;;;;;;8.07;65.01;98788.16;5063134;28;20975;-75
2021/03/13 00:50:49;;;;;;;9.17;5.20;;;;;;;8.01;64.80;98777.31;5063485;28;20506;-75
2021/03/13 00:53:15;;;;;;;9.10;4.70;;;;;;;7.97;65.25;98779.47;5064002;28;20448;-75
2021/03/13 00:55:41;;;;;;;6.73;4.50;;;;;;;7.91;65.23;98788.09;5063232;28;20488;-76
2021/03/13 00:58:08;;;;;;;7.67;4.03;;;;;;;7.73;65.64;98773.03;5062460;28;20479;-76
2021/03/13 01:00:34;;;;;;;8.77;4.70;;;;;;;8.12;64.68;98777.03;5063362;28;20476;-75
2021/03/13 01:03:00;;;;;;;7.63;4.07;;;;;;;7.73;65.85;98765.06;5063869;28;20491;-73
2021/03/13 01:05:27;;;;;;;7.07;3.97;;;;;;;8.01;64.64;98772.81;5063192;28;20472;-74
2021/03/13 01:07:54;;;;;;;8.43;3.90;;;;;;;7.98;64.80;98767.00;5063300;28;20483;-74
2021/03/13 01:10:24;;;;;;;7.87;4.43;;;;;;;7.62;65.56;98757.38;5063031;28;20452;-75
2021/03/13 01:12:51;;;;;;;8.37;4.30;;;;;;;8.05;64.86;98754.72;5063992;28;20459;-74
2021/03/13 01:15:19;;;;;;;8.23;3.83;;;;;;;7.58;65.56;98755.19;5063351;28;20497;-76
2021/03/13 01:17:45;;;;;;;7.93;4.47;;;;;;;7.73;65.11;98753.59;5062940;28;20452;-75
2021/03/13 01:20:13;;;;;;;11.63;4.43;;;;;;;7.62;65.28;98749.38;5062381;28;20433;-75
2021/03/13 01:22:40;;;;;;;9.80;5.23;;;;;;;7.77;64.71;98744.28;5064014;28;20444;-75
2021/03/13 01:25:09;;;;;;;5.97;5.27;;;;;;;8.07;64.19;98736.75;5062431;28;20464;-75
2021/03/13 01:27:35;;;;;;;8.67;4.17;;;;;;;7.85;65.14;98735.53;5063293;28;20463;-74
2021/03/13 01:30:02;;;;;;;7.10;4.53;;;;;;;7.90;64.87;98728.72;5063502;28;20437;-75
2021/03/13 01:32:28;;;;;;;6.40;3.50;;;;;;;7.84;64.74;98728.53;5062629;28;20485;-75
2021/03/13 01:34:54;;;;;;;9.73;4.17;;;;;;;7.75;64.96;98714.34;5063332;28;20499;-75
2021/03/13 01:37:21;;;;;;;7.17;4.37;;;;;;;8.25;63.55;98726.81;5062723;28;20485;-74
2021/03/13 01:39:48;;;;;;;6.17;3.20;;;;;;;8.06;63.87;98716.47;5062824;28;20472;-75
2021/03/13 01:42:15;;;;;;;4.77;3.73;;;;;;;8.18;63.62;98715.16;5062877;28;20504;-74
2021/03/13 01:44:42;;;;;;;7.20;3.30;;;;;;;8.18;63.54;98709.00;5061028;28;20479;-75
2021/03/13 01:47:08;;;;;;;6.43;2.80;;;;;;;7.97;63.66;98712.09;5061791;28;20510;-75
2021/03/13 01:49:36;;;;;;;8.13;3.43;;;;;;;7.99;64.20;98694.16;5055926;28;20453;-74
2021/03/13 01:52:02;;;;;;;8.57;3.53;;;;;;;8.11;63.43;98693.69;5061964;28;20488;-74
2021/03/13 01:54:29;;;;;;;8.50;3.00;;;;;;;7.92;63.99;98684.16;5062902;28;20469;-74
2021/03/13 01:56:56;;;;;;;6.10;4.57;;;;;;;8.42;62.71;98686.88;5061756;28;20560;-74
2021/03/13 01:59:23;;;;;;;5.37;2.90;;;;;;;8.23;63.41;98675.56;5061842;28;20484;-75
2021/03/13 02:01:49;;;;;;;6.30;2.67;;;;;;;8.26;63.28;98675.25;5061745;28;20492;-74
2021/03/13 02:04:16;;;;;;;8.20;3.87;;;;;;;8.21;62.95;98676.72;5062464;28;20441;-75
2021/03/13 02:06:46;;;;;;;7.40;3.50;;;;;;;8.12;63.68;98667.88;5061294;28;20483;-75
2021/03/13 02:09:20;;;;;;;9.90;3.10;;;;;;;8.24;63.10;98663.91;5062310;28;20461;-75
2021/03/13 02:11:50;;;;;;;7.70;3.57;;;;;;;8.35;62.85;98667.25;5062181;28;20476;-74
2021/03/13 02:14:24;;;;;;;8.47;3.63;;;;;;;8.24;62.90;98655.91;5062754;28;20468;-74
2021/03/13 02:16:54;;;;;;;9.37;3.60;;;;;;;8.40;62.57;98654.25;5045764;28;20517;-74
2021/03/13 02:19:51;;;;;;;10.17;3.17;;;;;;;7.96;63.58;98649.22;5061448;28;20456;-74
2021/03/13 02:22:19;;;;;;;7.00;3.10;;;;;;;8.18;62.86;98642.47;5045708;28;20476;-74
2021/03/13 02:25:01;;;;;;;8.63;3.50;;;;;;;8.12;63.03;98633.28;5062300;28;20467;-74
2021/03/13 02:27:29;;;;;;;7.77;3.23;;;;;;;8.44;61.88;98629.03;5061465;28;20469;-74
2021/03/13 02:29:59;;;;;;;10.17;3.67;;;;;;;8.60;61.58;98623.66;5061888;28;20460;-74
2021/03/13 02:32:35;;;;;;;9.03;3.80;;;;;;;8.22;62.47;98625.16;5061501;28;20476;-74
2021/03/13 02:35:04;;;;;;;12.27;4.33;;;;;;;8.33;62.37;98616.81;5061603;28;21094;-74
2021/03/13 02:37:35;;;;;;;10.90;4.03;;;;;;;8.67;61.36;98616.66;5062164;28;20558;-74
2021/03/13 02:40:03;;;;;;;8.90;4.87;;;;;;;8.34;62.80;98605.19;5059263;28;20461;-74
2021/03/13 02:42:31;;;;;;;7.70;3.20;;;;;;;8.16;62.89;98600.03;5041762;28;20597;-75
2021/03/13 02:45:00;;;;;;;7.30;4.03;;;;;;;8.37;62.42;98596.03;5041482;28;20434;-75
2021/03/13 02:47:26;;;;;;;11.27;3.63;;;;;;;8.38;62.58;98581.72;5052355;28;20477;-75
2021/03/13 02:49:53;;;;;;;7.83;3.90;;;;;;;8.54;62.18;98576.41;5048168;28;20508;-75
2021/03/13 02:52:21;;;;;;;9.63;4.97;;;;;;;8.45;62.33;98564.94;5060224;28;20481;-75
2021/03/13 02:54:48;;;;;;;10.57;3.30;;;;;;;8.33;62.75;98562.75;5061991;28;20487;-75
2021/03/13 02:57:15;;;;;;;7.87;3.23;;;;;;;8.43;62.18;98552.78;5053874;28;20477;-75
2021/03/13 02:59:43;;;;;;;7.50;3.53;;;;;;;8.12;63.25;98556.09;5042390;28;20501;-75
2021/03/13 03:02:11;;;;;;;5.93;2.70;;;;;;;7.91;64.12;98545.94;5058254;28;20476;-75
2021/03/13 03:04:39;;;;;;;5.23;3.07;;;;;;;8.09;63.11;98540.47;5061599;28;20433;-75
2021/03/13 03:07:05;;;;;;;8.13;4.20;;;;;;;8.63;61.86;98537.28;5060196;28;20481;-75
2021/03/13 03:09:32;;;;;;;5.67;3.00;;;;;;;8.43;62.44;98526.97;5061230;28;20449;-75
2021/03/13 03:12:00;;;;;;;13.20;3.70;;;;;;;8.31;62.68;98525.63;5060774;28;20477;-75
2021/03/13 03:14:27;;;;;;;7.17;4.10;;;;;;;8.60;61.69;98525.09;5061689;28;20496;-75
2021/03/13 03:16:57;;;;;;;8.37;4.20;;;;;;;8.35;62.19;98520.78;5052138;28;20504;-75
2021/03/13 03:19:25;;;;;;;7.20;3.00;;;;;;;8.22;62.72;98514.16;5057029;28;20456;-75
2021/03/13 03:21:52;;;;;;;6.53;2.67;;;;;;;8.25;62.91;98511.16;5056003;28;20536;-75
2021/03/13 03:24:19;;;;;;;12.40;2.80;;;;;;;8.43;63.03;98507.50;5061604;28;20956;-74
2021/03/13 03:26:45;;;;;;;8.00;2.37;;;;;;;8.41;63.23;98504.97;5059931;28;20484;-74
2021/03/13 03:29:12;;;;;;;3.50;2.43;;;;;;;8.43;62.72;98497.66;5060256;28;20445;-75
2021/03/13 03:31:38;;;;;;;11.40;2.90;;;;;;;8.67;61.50;98502.09;5055586;28;20477;-75
2021/03/13 03:34:05;;;;;;;4.07;2.17;;;;;;;8.10;63.56;98489.72;5052607;28;20935;-75
2021/03/13 03:36:32;;;;;;;3.40;2.30;;;;;;;8.57;62.51;98490.81;5059293;28;20499;-75
2021/03/13 03:38:59;;;;;;;5.10;2.20;;;;;;;8.30;63.08;98487.53;5061188;28;20818;-75
2021/03/13 03:41:27;;;;;;;6.57;2.60;;;;;;;8.29;63.52;98477.03;5059962;28;20922;-75
2021/03/13 03:43:55;;;;;;;9.00;2.20;;;;;;;8.19;64.80;98487.88;5061721;28;20444;-75
2021/03/13 03:46:22;;;;;;;4.73;2.90;;;;;;;8.01;64.84;98474.75;5059162;28;20511;-75
2021/03/13 03:48:50;;;;;;;7.37;2.47;;;;;;;7.82;66.98;98481.25;5041488;28;20468;-75
2021/03/13 03:51:18;;;;;;;3.57;2.70;;;;;;;8.18;66.74;98483.56;5059176;28;20477;-75
2021/03/13 03:53:48;;;;;;;9.13;3.37;;;;;;;7.92;68.10;98471.28;5061990;28;20434;-75
2021/03/13 03:56:14;;;;;;;5.23;2.70;;;;;;;8.12;67.47;98462.94;5059516;28;20500;-77
2021/03/13 03:58:44;;;;;;;6.10;3.20;;;;;;;7.63;68.99;98484.25;5059824;28;20489;-74
2021/03/13 04:01:11;;;;;;;8.87;3.67;;;;;;;7.95;68.76;98458.63;5059751;28;20506;-73
2021/03/13 04:03:39;;;;;;;6.13;3.80;;;;;;;7.91;69.35;98466.94;5061069;28;20493;-75
2021/03/13 04:06:07;;;;;;;7.03;3.80;;;;;;;7.64;69.68;98444.19;5060187;28;20484;-75
2021/03/13 04:08:34;;;;;;;6.17;3.90;;;;;;;7.44;70.85;98445.50;5060520;28;20445;-75
2021/03/13 04:11:02;;;;;;;11.40;3.97;;;;;;;7.35;70.91;98449.97;5060660;28;20468;-75
2021/03/13 04:13:29;;;;;;;8.10;3.87;;;;;;;7.27;71.02;98447.31;5055497;28;20458;-76
2021/03/13 04:15:55;;;;;;;7.13;4.63;;;;;;;7.54;71.15;98440.84;5047510;28;20870;-76
2021/03/13 04:18:21;;;;;;;8.43;5.33;;;;;;;7.26;71.20;98443.81;5060216;28;20467;-76
2021/03/13 04:20:49;;;;;;;7.40;4.40;;;;;;;7.14;72.31;98426.53;5059438;28;20487;-75
2021/03/13 04:23:18;;;;;;;5.27;3.77;;;;;;;7.40;71.31;98418.41;5061203;28;20433;-76
2021/03/13 04:25:46;;;;;;;5.60;3.83;;;;;;;7.19;71.96;98410.94;5051329;28;20476;-75
2021/03/13 04:28:14;;;;;;;5.33;3.70;;;;;;;7.29;71.37;98410.75;5060054;28;20502;-75
2021/03/13 04:30:41;;;;;;;7.10;3.77;;;;;;;7.35;71.69;98396.81;5064325;28;20503;-75
2021/03/13 04:33:07;;;;;;;4.77;3.80;;;;;;;7.02;72.78;98383.50;5058841;28;20437;-75
2021/03/13 04:35:34;;;;;;;5.30;3.80;;;;;;;7.13;71.85;98390.31;5051430;28;20774;-77
2021/03/13 04:38:01;;;;;;;4.10;3.20;;;;;;;7.48;71.21;98385.66;5064126;28;20457;-75
2021/03/13 04:40:27;;;;;;;6.73;3.60;;;;;;;6.96;72.98;98384.13;5063429;28;20471;-76
2021/03/13 04:42:54;;;;;;;3.90;3.03;;;;;;;7.06;72.79;98384.81;5063354;28;20440;-76
2021/03/13 04:45:21;;;;;;;3.63;3.30;;;;;;;7.03;73.02;98368.38;5062054;28;20967;-76
2021/03/13 04:47:48;;;;;;;7.13;3.50;;;;;;;7.05;72.79;98364.56;5063743;28;21037;-76
2021/03/13 04:50:17;;;;;;;8.87;3.80;;;;;;;7.07;72.95;98345.81;5063372;28;20940;-76
2021/03/13 04:52:43;;;;;;;4.23;3.53;;;;;;;7.27;72.23;98344.47;5064441;28;20444;-77
2021/03/13 04:55:10;;;;;;;3.60;3.23;;;;;;;7.40;72.03;98332.53;5046859;28;20481;-74
2021/03/13 04:57:37;;;;;;;4.20;3.10;;;;;;;6.84;73.20;98337.63;5063126;28;20453;-76
2021/03/13 05:00:05;;;;;;;3.97;3.13;;;;;;;6.82;73.58;98324.50;5063732;28;20477;-75
2021/03/13 05:02:32;;;;;;;4.60;3.30;;;;;;;6.90;73.39;98323.69;5062975;28;20475;-76
2021/03/13 05:04:58;;;;;;;2.60;2.23;;;;;;;6.86;73.80;98301.97;5043897;28;21032;-76
2021/03/13 05:07:24;;;;;;;4.97;3.00;;;;;;;6.99;73.22;98304.09;5060389;28;20477;-77
2021/03/13 05:09:50;;;;;;;5.20;2.90;;;;;;;7.12;72.78;98295.66;5063639;28;20445;-75
2021/03/13 05:12:17;;;;;;;4.30;2.70;;;;;;;6.79;73.33;98282.38;5062593;28;20477;-76
2021/03/13 05:14:43;;;;;;;3.37;2.47;;;;;;;6.94;73.60;98285.19;5064294;28;20512;-75
2021/03/13 05:17:09;;;;;;;5.77;2.77;;;;;;;7.02;73.20;98276.41;5063012;28;20472;-75
2021/03/13 05:19:36;;;;;;;6.00;2.63;;;;;;;7.00;73.81;98265.09;5063522;28;20453;-76
2021/03/13 05:22:02;;;;;;;3.10;2.80;;;;;;;6.86;73.92;98262.13;5057376;28;20492;-75
2021/03/13 05:24:29;;;;;;;2.47;2.27;;;;;;;6.79;73.58;98259.28;5044642;28;20484;-76
2021/03/13 05:26:55;;;;;;;2.53;2.20;;;;;;;6.91;73.78;98250.97;5060175;28;20477;-75
2021/03/13 05:29:21;;;;;;;4.33;2.87;;;;;;;6.71;74.28;98240.69;5066017;28;20459;-75
2021/03/13 05:31:47;;;;;;;3.00;2.47;;;;;;;6.96;74.07;98244.19;5063467;28;20531;-75
2021/03/13 05:34:14;;;;;;;2.47;2.20;;;;;;;7.07;73.66;98234.22;5048169;28;20449;-76
2021/03/13 05:36:42;;;;;;;2.10;1.90;;;;;;;6.82;74.03;98225.41;5055591;28;20507;-76
2021/03/13 05:39:08;;;;;;;2.23;2.07;;;;;;;6.65;74.53;98212.16;5063616;28;20452;-75
2021/03/13 05:41:36;;;;;;;3.30;2.30;;;;;;;6.51;74.85;98204.81;5061375;28;20477;-76
2021/03/13 05:44:04;;;;;;;1.90;1.70;;;;;;;6.89;74.46;98202.50;5063210;28;20461;-76
2021/03/13 05:46:35;;;;;;;1.90;1.70;;;;;;;6.97;73.34;98184.72;5062145;28;20476;-76
2021/03/13 05:49:03;;;;;;;2.10;1.90;;;;;;;6.95;73.94;98185.91;5062820;28;20539;-75
2021/03/13 05:51:33;;;;;;;1.60;1.50;;;;;;;6.94;74.37;98194.84;5055737;28;20478;-77
2021/03/13 05:54:01;;;;;;;2.90;1.80;;;;;;;6.96;73.61;98167.13;5044392;28;20450;-76
2021/03/13 05:56:29;;;;;;;1.80;1.47;;;;;;;6.96;74.40;98184.88;5052826;28;20880;-76
2021/03/13 05:58:55;;;;;;;2.00;1.80;;;;;;;6.89;74.23;98152.03;5061922;28;20480;-77
2021/03/13 06:01:21;;;;;;;2.60;1.77;;;;;;;6.90;74.66;98141.25;5062014;28;20481;-76
2021/03/13 06:03:48;;;;;;;2.37;1.90;;;;;;;7.07;74.10;98131.41;5062747;28;20440;-76
2021/03/13 06:06:14;;;;;;;3.00;2.07;;;;;;;7.05;74.19;98127.25;5062411;28;20480;-77
2021/03/13 06:08:42;;;;;;;2.30;1.63;;;;;;;7.04;74.19;98113.16;5063213;28;20449;-77
2021/03/13 06:11:09;;;;;;;1.50;1.40;;;;;;;7.06;74.22;98108.47;5054601;28;20512;-76
2021/03/13 06:13:35;;;;;;;1.93;1.50;;;;;;;7.12;74.00;98099.84;5043222;28;20445;-77
2021/03/13 06:16:05;;;;;;;1.93;1.73;;;;;;;7.03;74.29;98092.91;5049641;28;21128;-77
2021/03/13 06:18:56;;;;;;;1.50;1.23;;;;;;;7.02;74.60;98091.25;5061737;28;20504;-76
2021/03/13 06:21:24;;;;;;;1.70;1.40;;;;;;;7.15;74.29;98085.38;5060633;28;20495;-76
2021/03/13 06:23:55;;;;;;;1.67;1.50;;;;;;;7.38;73.59;98079.28;5062680;28;20483;-76
2021/03/13 06:26:23;;;;;;;3.43;1.53;;;;;;;7.47;73.38;98063.13;5055197;28;20476;-76
2021/03/13 06:28:49;;;;;;;1.73;1.30;;;;;;;7.19;74.26;98048.66;5042015;28;20960;-75
2021/03/13 06:31:22;;;;;;;2.70;1.43;;;;;;;7.10;74.19;98051.38;5051463;28;20901;-76
2021/03/13 06:33:49;;;;;;;1.10;0.80;;;;;;;7.27;73.83;98051.28;5054121;28;20502;-75
2021/03/13 06:36:20;;;;;;;1.20;1.10;;;;;;;7.11;74.69;98047.69;5054377;28;20489;-75
2021/03/13 06:38:46;;;;;;;1.70;1.50;;;;;;;7.37;73.28;98041.25;5043287;28;20453;-74
2021/03/13 06:41:16;;;;;;;1.10;1.00;;;;;;;7.46;73.34;98042.84;5050591;28;20510;-75
2021/03/13 06:43:44;;;;;;;1.37;1.27;;;;;;;7.36;73.31;98034.31;5062013;28;20484;-74
2021/03/13 06:46:11;;;;;;;2.10;1.07;;;;;;;7.42;73.12;98027.44;5056463;28;20466;-74
2021/03/13 06:48:43;;;;;;;1.03;1.00;;;;;;;7.66;72.22;98002.53;5052178;28;20452;-76
2021/03/13 06:51:27;;;;;;;1.23;1.13;;;;;;;7.63;72.21;98010.84;5060579;28;20535;-75
2021/03/13 06:54:11;;;;;;;1.40;0.87;;;;;;;7.84;71.85;98003.03;5065057;28;20475;-75
2021/03/13 06:56:39;;;;;;;1.17;0.90;;;;;;;7.79;71.91;97996.59;5057946;28;20992;-74
2021/03/13 06:59:24;;;;;;;1.07;0.97;;;;;;;7.80;71.58;97995.63;5058942;28;20477;-74
2021/03/13 07:01:58;;;;;;;1.00;1.00;;;;;;;7.72;71.71;97991.16;5057834;28;20485;-75
2021/03/13 07:04:39;;;;;;;4.20;1.20;;;;;;;7.85;71.26;97985.28;5046777;28;20450;-76
2021/03/13 07:07:06;;;;;;;2.37;1.40;;;;;;;7.70;71.79;97982.53;5038783;28;20554;-75
2021/03/13 07:09:52;;;;;;;0.97;0.90;;;;;;;7.68;72.39;97977.41;5039613;28;20457;-76
2021/03/13 07:12:23;;;;;;;0.80;0.80;;;;;;;7.64;72.02;97962.00;5039221;28;21106;-76
2021/03/13 07:14:50;;;;;;;1.40;1.30;;;;;;;7.76;72.37;97952.59;5039664;28;20469;-76
2021/03/13 07:17:16;;;;;;;0.70;0.70;;;;;;;7.65;72.40;97945.84;5039968;28;20470;-76
2021/03/13 07:19:43;;;;;;;0.60;0.60;;;;;;;7.86;71.60;97944.34;5038877;28;20519;-76
2021/03/13 07:22:11;;;;;;;1.70;0.80;;;;;;;8.03;71.55;97940.53;5056036;28;20499;-77
2021/03/13 07:24:38;;;;;;;1.70;1.00;;;;;;;8.09;71.37;97957.63;5050880;28;20458;-77
2021/03/13 07:27:05;;;;;;;1.00;0.70;;;;;;;7.88;71.92;97952.97;5055703;28;20475;-76
2021/03/13 07:29:32;;;;;;;1.10;1.00;;;;;;;8.18;70.72;97950.38;5057523;28;20460;-76
2021/03/13 07:32:02;;;;;;;2.67;0.80;;;;;;;7.98;72.02;97918.13;5058670;28;20469;-76
2021/03/13 07:34:35;;;;;;;1.00;0.70;;;;;;;8.12;71.30;97938.59;5058405;28;20933;-76
2021/03/13 07:37:03;;;;;;;1.23;1.03;;;;;;;8.27;70.92;97949.28;5057746;28;20503;-76
2021/03/13 07:39:33;;;;;;;3.87;2.07;;;;;;;7.88;71.24;97942.31;5058689;28;20498;-77
2021/03/13 07:42:03;;;;;;;1.90;0.93;;;;;;;8.04;71.65;97928.06;5052987;28;20504;-76
2021/03/13 07:44:30;;;;;;;3.27;1.97;;;;;;;8.34;71.37;97939.53;5039120;28;20443;-75
2021/03/13 07:46:57;;;;;;;2.50;1.80;;;;;;;8.34;69.75;97912.09;5052588;28;20481;-75
2021/03/13 07:49:25;;;;;;;3.10;2.13;;;;;;;8.49;70.29;97918.28;5058567;28;20468;-75
2021/03/13 07:51:52;;;;;;;2.73;1.17;;;;;;;8.46;70.11;97913.31;5055522;28;20562;-76
2021/03/13 07:54:18;;;;;;;1.00;0.90;;;;;;;8.47;70.06;97922.94;5056952;28;20483;-75
2021/03/13 07:56:46;;;;;;;1.80;1.03;;;;;;;8.73;69.42;97893.19;5055232;28;20504;-75
2021/03/13 07:59:13;;;;;;;1.63;0.80;;;;;;;8.66;69.80;97881.59;5057262;28;20484;-75
2021/03/13 08:01:46;;;;;;;1.23;0.80;;;;;;;8.78;69.42;97885.44;5055173;28;20887;-75
2021/03/13 08:04:46;;;;;;;1.37;0.70;;;;;;;8.58;69.88;97874.56;5057462;28;20493;-76
2021/03/13 08:07:13;;;;;;;1.10;0.80;;;;;;;8.76;69.00;97886.66;5044786;28;20992;-75
2021/03/13 08:09:42;;;;;;;1.50;1.13;;;;;;;8.75;69.12;97863.66;5061294;28;20453;-75
2021/03/13 08:12:08;;;;;;;2.27;1.20;;;;;;;9.00;68.42;97877.47;5066676;28;20476;-75
2021/03/13 08:14:36;;;;;;;2.67;1.27;;;;;;;8.89;68.78;97875.31;5065480;28;20445;-75
2021/03/13 08:17:06;;;;;;;2.97;1.40;;;;;;;8.92;68.79;97859.75;5064436;28;20465;-75
2021/03/13 08:19:34;;;;;;;2.50;1.10;;;;;;;9.14;68.88;97879.25;5066305;28;20464;-72
2021/03/13 08:22:19;;;;;;;1.47;1.20;;;;;;;9.04;67.61;97855.59;5048601;28;20480;-73
2021/03/13 08:24:47;;;;;;;3.07;2.43;;;;;;;9.30;67.71;97864.84;5046305;28;21037;-73
2021/03/13 08:27:15;;;;;;;3.00;2.00;;;;;;;8.98;69.32;97864.34;5061780;28;20472;-74
2021/03/13 08:29:53;;;;;;;1.40;0.97;;;;;;;8.95;69.64;97879.88;5067634;28;20499;-78
2021/03/13 08:33:04;;;;;;;1.10;0.80;;;;;;;9.27;69.51;97891.06;5067031;28;20480;-76
2021/03/13 08:35:42;;;;;;;3.10;0.70;;;;;;;8.94;70.83;97921.72;5059989;28;20476;-77
2021/03/13 08:38:10;;;;;;;1.07;0.70;;;;;;;8.87;71.72;97952.78;5062318;28;20452;-75
2021/03/13 08:40:46;;;;;;;1.80;1.00;;;;;;;8.52;73.74;97976.47;5071810;27;20471;-76
2021/03/13 08:43:38;;;;;;;1.77;0.83;;;;;;;8.33;72.48;97958.34;5070213;28;20452;-76
2021/03/13 08:46:06;;;;;;;2.20;0.80;;;;;;;7.94;68.45;97930.16;5051511;28;20918;-75
2021/03/13 08:48:57;;;;;;;1.43;1.00;;;;;;;8.44;69.32;97952.63;5066676;28;20476;-74
2021/03/13 08:51:39;;;;;;;1.97;0.67;;;;;;;8.22;68.05;97938.34;5076132;27;20525;-76
2021/03/13 08:54:06;;;;;;;6.37;2.00;;;;;;;8.55;66.56;97948.66;5020373;28;20561;-74
2021/03/13 08:56:42;;;;;;;1.40;0.77;;;;;;;8.40;67.02;97962.78;5030683;28;20505;-75
2021/03/13 08:59:13;;;;;;;1.13;0.77;;;;;;;8.34;66.15;97949.38;5031962;28;20495;-75
2021/03/13 09:01:40;;;;;;;1.03;0.67;;;;;;;8.44;66.94;97966.75;5039117;28;20480;-74
2021/03/13 09:04:07;;;;;;;1.27;1.00;;;;;;;8.61;66.47;97967.41;5034395;28;20457;-75
2021/03/13 09:06:33;;;;;;;2.10;0.90;;;;;;;8.44;67.30;97971.28;5048720;28;20465;-75
2021/03/13 09:09:11;;;;;;;2.40;1.30;;;;;;;8.79;66.46;97967.03;5031615;28;20465;-76
2021/03/13 09:11:39;;;;;;;2.00;1.10;;;;;;;8.96;66.05;97948.19;5030139;28;20493;-74
2021/03/13 09:14:05;;;;;;;2.10;1.40;;;;;;;8.98;65.68;97952.28;5041114;28;20944;-76
2021/03/13 09:16:35;;;;;;;1.33;1.10;;;;;;;8.89;67.32;97961.41;5035901;28;20515;-76
2021/03/13 09:19:02;;;;;;;1.90;1.03;;;;;;;8.81;66.52;97959.66;5036699;28;20548;-76
2021/03/13 09:21:42;;;;;;;3.43;1.20;;;;;;;9.02;65.88;97958.06;5037905;28;20482;-76
2021/03/13 09:24:11;;;;;;;1.10;1.00;;;;;;;9.01;64.31;97949.25;5037195;28;20449;-75
2021/03/13 09:26:38;;;;;;;4.43;1.90;;;;;;;9.15;64.67;97949.38;5037553;28;21072;-76
2021/03/13 09:29:04;;;;;;;2.67;1.73;;;;;;;9.07;64.29;97946.84;5041538;28;20440;-74
2021/03/13 09:31:31;;;;;;;5.17;1.70;;;;;;;8.99;62.80;97945.13;5049516;28;20473;-75
2021/03/13 09:34:16;;;;;;;4.73;1.30;;;;;;;9.07;62.97;97955.66;5054340;28;20446;-75
2021/03/13 09:36:44;;;;;;;5.07;1.43;;;;;;;9.07;62.29;97958.34;5059981;28;20492;-76
2021/03/13 09:39:12;;;;;;;4.67;2.17;;;;;;;9.56;61.05;97962.94;5062704;28;20968;-75
2021/03/13 09:41:38;;;;;;;3.83;1.90;;;;;;;9.37;62.20;97959.09;5061329;28;20485;-76
2021/03/13 09:44:05;;;;;;;1.97;1.30;;;;;;;9.20;61.04;97950.50;5061678;28;20480;-76
2021/03/13 09:46:32;;;;;;;8.90;1.97;;;;;;;9.94;59.93;97961.84;5049861;28;20643;-74
2021/03/13 09:48:59;;;;;;;5.47;2.20;;;;;;;9.59;60.15;97951.91;5060824;28;20461;-76
2021/03/13 09:51:26;;;;;;;3.33;2.60;;;;;;;9.61;60.06;97959.72;5064351;28;20472;-74
2021/03/13 09:53:53;;;;;;;3.90;1.67;;;;;;;9.87;59.85;97959.13;5046450;28;20533;-74
2021/03/13 09:56:30;;;;;;;6.80;1.67;;;;;;;9.99;58.93;97956.78;5050377;28;20988;-76
2021/03/13 09:58:57;;;;;;;5.00;1.50;;;;;;;9.84;59.44;97942.69;5058979;28;21039;-75
2021/03/13 10:01:24;;;;;;;3.77;1.70;;;;;;;9.89;58.35;97933.06;5057780;28;20835;-76
2021/03/13 10:03:50;;;;;;;3.07;1.73;;;;;;;10.18;58.42;97945.41;5056253;28;20436;-74
2021/03/13 10:06:18;;;;;;;2.20;1.10;;;;;;;9.93;57.46;97946.84;5054998;28;20465;-75
2021/03/13 10:08:44;;;;;;;3.13;1.50;;;;;;;10.25;56.58;97942.78;5057911;28;20445;-76
2021/03/13 10:11:10;;;;;;;2.10;1.30;;;;;;;10.02;56.68;97943.03;5058245;28;20473;-76
2021/03/13 10:13:37;;;;;;;3.60;1.40;;;;;;;9.99;57.11;97940.75;5053412;28;20453;-76
2021/03/13 10:16:05;;;;;;;2.43;1.20;;;;;;;10.15;57.08;97944.97;5048814;28;20473;-75
2021/03/13 10:18:37;;;;;;;2.80;1.00;;;;;;;10.27;57.71;97950.59;5058323;28;20464;-75
2021/03/13 10:21:04;;;;;;;2.07;1.30;;;;;;;10.04;57.31;97938.31;5054842;28;20471;-76
2021/03/13 10:23:31;;;;;;;4.53;1.30;;;;;;;9.87;57.15;97926.28;5056312;28;20521;-75
2021/03/13 10:25:59;;;;;;;2.50;1.60;;;;;;;10.18;57.08;97933.91;5057797;28;20477;-73
2021/03/13 10:28:27;;;;;;;2.23;1.60;;;;;;;10.27;55.47;97926.56;5052563;28;20445;-73
2021/03/13 10:31:04;;;;;;;4.50;1.37;;;;;;;10.27;56.03;97931.91;5052463;28;20476;-73
2021/03/13 10:33:31;;;;;;;5.30;1.27;;;;;;;9.94;55.46;97929.81;5054802;28;20451;-73
2021/03/13 10:35:57;;;;;;;5.67;1.53;;;;;;;9.56;55.61;97938.94;5055920;28;20472;-73
2021/03/13 10:38:24;;;;;;;5.33;2.43;;;;;;;9.99;55.97;97935.41;5055097;28;20449;-73
2021/03/13 10:40:50;;;;;;;3.33;1.80;;;;;;;10.20;55.97;97926.53;5048825;28;20491;-75
2021/03/13 10:43:30;;;;;;;7.27;2.30;;;;;;;10.68;54.76;97915.94;5054001;28;21255;-74
2021/03/13 10:46:19;;;;;;;6.10;2.00;;;;;;;10.33;55.66;97915.16;5055872;28;20526;-75
2021/03/13 10:49:03;;;;;;;7.23;2.07;;;;;;;11.38;51.41;97909.56;5051826;28;20456;-73
2021/03/13 10:51:30;;;;;;;4.97;1.90;;;;;;;11.55;52.02;97908.16;5057360;28;21082;-73
2021/03/13 10:53:57;;;;;;;4.20;1.67;;;;;;;10.43;53.63;97899.56;5058006;28;20509;-73
2021/03/13 10:56:24;;;;;;;4.03;1.40;;;;;;;11.45;52.24;97902.38;5054028;28;20514;-73
2021/03/13 10:58:51;;;;;;;6.03;1.80;;;;;;;10.85;53.21;97900.38;5054957;28;20488;-73
2021/03/13 11:01:21;;;;;;;5.80;1.70;;;;;;;10.57;54.06;97887.09;5058503;28;20484;-73
2021/03/13 11:03:49;;;;;;;9.40;2.00;;;;;;;10.44;53.54;97889.72;5058957;28;20475;-74
2021/03/13 11:06:25;;;;;;;3.43;1.90;;;;;;;10.87;54.39;97887.63;5056325;28;20463;-74
2021/03/13 11:08:52;;;;;;;4.77;1.50;;;;;;;10.22;54.73;97895.09;5046022;28;20448;-74
2021/03/13 11:11:18;;;;;;;4.17;1.80;;;;;;;10.99;53.78;97892.38;5044602;28;20500;-73
2021/03/13 11:13:45;;;;;;;6.77;2.20;;;;;;;10.31;54.37;97907.31;5051511;28;20456;-75
2021/03/13 11:16:11;;;;;;;5.73;2.37;;;;;;;10.28;55.21;97920.22;5045894;28;20470;-74
2021/03/13 11:18:38;;;;;;;6.47;2.10;;;;;;;9.73;55.64;97920.00;5053637;28;20481;-74
2021/03/13 11:21:05;;;;;;;3.37;1.80;;;;;;;9.56;57.90;97946.94;5056174;28;20859;-73
2021/03/13 11:23:31;;;;;;;5.20;2.07;;;;;;;9.54;58.81;97985.50;5055436;28;20453;-74
2021/03/13 11:25:58;;;;;;;2.70;1.10;;;;;;;7.56;64.75;98004.59;5058273;28;20469;-75
2021/03/13 11:28:24;;;;;;;2.60;0.70;;;;;;;6.29;69.97;98013.41;5055633;28;20495;-75
2021/03/13 11:30:50;;;;;;;2.10;0.93;;;;;;;5.83;70.62;98021.03;5054607;28;20503;-75
2021/03/13 11:33:17;;;;;;;3.07;0.90;;;;;;;5.57;72.36;98005.28;5053321;28;20461;-78
2021/03/13 11:35:45;;;;;;;2.70;1.30;;;;;;;5.57;72.41;97984.91;5053344;28;20499;-76
2021/03/13 11:38:11;;;;;;;5.50;1.43;;;;;;;5.59;72.32;97974.13;5058511;28;20587;-76
2021/03/13 11:40:37;;;;;;;1.13;1.00;;;;;;;5.80;71.55;97965.69;5058097;28;20473;-76
2021/03/13 11:43:04;;;;;;;6.03;1.60;;;;;;;6.15;70.95;97951.25;5058517;28;20452;-75
2021/03/13 11:45:30;;;;;;;7.30;1.67;;;;;;;6.43;69.65;97969.44;5058107;28;20465;-75
2021/03/13 11:47:57;;;;;;;3.27;1.30;;;;;;;6.23;70.45;97942.44;5051408;28;20457;-74
2021/03/13 11:50:25;;;;;;;7.10;1.37;;;;;;;6.59;68.79;97948.13;5054166;28;20468;-74